< < Back
Terminal Aerodrome Forecast


Current Version              Previous Versions:   1  2  3  4  5  6  7  8  9  

Terminal Aerodrome Forecast

930
FTUS42 KCHS 240200 AAB
TAFCHS
TAF AMD
KCHS 240235Z 2403/2424 VRB03KT P6SM SKC
     FM240600 04007KT P6SM SKC
     FM241500 07010G17KT P6SM FEW040
     FM242000 13013G19KT P6SM SCT035=



Latest METAR

880
SAUS80 KWBC 250300 RRB
MTRCHS
METAR KCHS 250256Z 06003KT 10SM CLR 17/14 A2999 RMK AO2 SLP156 T01720139
58003


USA.gov is the U.S. government's official web portal to all federal, state and local government web resources and services.